sensor_id;sensor_type;location;lat;lon;timestamp;P1;durP1;ratioP1;P2;durP2;ratioP2
25846;SDS011;13676;50.168;8.568;2022-08-03T00:00:54;2.53;;;0.80;;
25846;SDS011;13676;50.168;8.568;2022-08-03T00:03:20;1.40;;;0.80;;
25846;SDS011;13676;50.168;8.568;2022-08-03T00:05:45;0.85;;;0.80;;
25846;SDS011;13676;50.168;8.568;2022-08-03T00:08:11;1.00;;;0.90;;
25846;SDS011;13676;50.168;8.568;2022-08-03T00:10:36;1.02;;;0.73;;
25846;SDS011;13676;50.168;8.568;2022-08-03T00:13:02;2.10;;;0.77;;
25846;SDS011;13676;50.168;8.568;2022-08-03T00:15:28;2.25;;;0.90;;
25846;SDS011;13676;50.168;8.568;2022-08-03T00:17:53;1.98;;;0.82;;
25846;SDS011;13676;50.168;8.568;2022-08-03T00:20:18;2.67;;;0.80;;
25846;SDS011;13676;50.168;8.568;2022-08-03T00:22:45;1.65;;;1.20;;
25846;SDS011;13676;50.168;8.568;2022-08-03T00:25:10;0.73;;;0.73;;
25846;SDS011;13676;50.168;8.568;2022-08-03T00:27:36;0.75;;;0.65;;
25846;SDS011;13676;50.168;8.568;2022-08-03T00:30:01;0.80;;;0.70;;
25846;SDS011;13676;50.168;8.568;2022-08-03T00:32:27;3.60;;;1.15;;
25846;SDS011;13676;50.168;8.568;2022-08-03T00:34:52;1.65;;;1.20;;
25846;SDS011;13676;50.168;8.568;2022-08-03T00:37:17;1.67;;;1.27;;
25846;SDS011;13676;50.168;8.568;2022-08-03T00:39:43;2.72;;;1.00;;
25846;SDS011;13676;50.168;8.568;2022-08-03T00:42:11;0.70;;;0.70;;
25846;SDS011;13676;50.168;8.568;2022-08-03T00:44:40;3.40;;;1.30;;
25846;SDS011;13676;50.168;8.568;2022-08-03T00:47:06;1.38;;;1.27;;
25846;SDS011;13676;50.168;8.568;2022-08-03T00:49:31;1.73;;;1.02;;
25846;SDS011;13676;50.168;8.568;2022-08-03T00:51:57;1.90;;;1.10;;
25846;SDS011;13676;50.168;8.568;2022-08-03T00:54:23;2.00;;;1.00;;
25846;SDS011;13676;50.168;8.568;2022-08-03T00:56:49;0.98;;;0.85;;
25846;SDS011;13676;50.168;8.568;2022-08-03T00:59:14;3.10;;;0.90;;
25846;SDS011;13676;50.168;8.568;2022-08-03T01:01:40;1.67;;;1.10;;
25846;SDS011;13676;50.168;8.568;2022-08-03T01:04:05;0.90;;;0.90;;
25846;SDS011;13676;50.168;8.568;2022-08-03T01:12:09;1.70;;;1.23;;
25846;SDS011;13676;50.168;8.568;2022-08-03T01:14:59;3.40;;;1.15;;
25846;SDS011;13676;50.168;8.568;2022-08-03T01:17:33;1.27;;;1.17;;
25846;SDS011;13676;50.168;8.568;2022-08-03T01:20:09;2.13;;;1.30;;
25846;SDS011;13676;50.168;8.568;2022-08-03T01:25:27;1.67;;;1.20;;
25846;SDS011;13676;50.168;8.568;2022-08-03T01:28:01;1.58;;;1.10;;
25846;SDS011;13676;50.168;8.568;2022-08-03T01:30:35;3.20;;;1.00;;
25846;SDS011;13676;50.168;8.568;2022-08-03T01:33:18;1.60;;;1.00;;
25846;SDS011;13676;50.168;8.568;2022-08-03T01:35:47;2.20;;;0.88;;
25846;SDS011;13676;50.168;8.568;2022-08-03T01:38:23;2.20;;;0.93;;
25846;SDS011;13676;50.168;8.568;2022-08-03T01:40:54;1.10;;;0.80;;
25846;SDS011;13676;50.168;8.568;2022-08-03T01:43:20;1.33;;;1.00;;
25846;SDS011;13676;50.168;8.568;2022-08-03T01:45:52;0.73;;;0.70;;
25846;SDS011;13676;50.168;8.568;2022-08-03T01:50:44;1.23;;;1.10;;
25846;SDS011;13676;50.168;8.568;2022-08-03T01:53:12;1.50;;;1.10;;
25846;SDS011;13676;50.168;8.568;2022-08-03T01:55:38;1.88;;;1.10;;
25846;SDS011;13676;50.168;8.568;2022-08-03T01:58:04;2.20;;;1.33;;
25846;SDS011;13676;50.168;8.568;2022-08-03T02:00:32;1.10;;;1.00;;
25846;SDS011;13676;50.168;8.568;2022-08-03T02:02:59;1.10;;;1.00;;
25846;SDS011;13676;50.168;8.568;2022-08-03T02:05:25;1.27;;;0.90;;
25846;SDS011;13676;50.168;8.568;2022-08-03T02:07:51;1.85;;;0.80;;
25846;SDS011;13676;50.168;8.568;2022-08-03T02:10:17;1.08;;;0.80;;
25846;SDS011;13676;50.168;8.568;2022-08-03T02:12:43;1.50;;;1.00;;
25846;SDS011;13676;50.168;8.568;2022-08-03T02:15:10;0.93;;;0.83;;
25846;SDS011;13676;50.168;8.568;2022-08-03T02:17:36;1.23;;;0.80;;
25846;SDS011;13676;50.168;8.568;2022-08-03T02:20:02;1.30;;;0.90;;
25846;SDS011;13676;50.168;8.568;2022-08-03T02:22:29;1.00;;;0.90;;
25846;SDS011;13676;50.168;8.568;2022-08-03T02:24:55;2.13;;;1.20;;
25846;SDS011;13676;50.168;8.568;2022-08-03T02:27:22;2.00;;;0.93;;
25846;SDS011;13676;50.168;8.568;2022-08-03T02:29:54;1.23;;;1.00;;
25846;SDS011;13676;50.168;8.568;2022-08-03T02:32:28;1.73;;;1.00;;
25846;SDS011;13676;50.168;8.568;2022-08-03T02:34:57;2.15;;;0.95;;
25846;SDS011;13676;50.168;8.568;2022-08-03T02:37:25;0.80;;;0.80;;
25846;SDS011;13676;50.168;8.568;2022-08-03T02:39:54;3.10;;;1.10;;
25846;SDS011;13676;50.168;8.568;2022-08-03T02:42:23;2.35;;;1.40;;
25846;SDS011;13676;50.168;8.568;2022-08-03T02:44:50;1.52;;;1.00;;
25846;SDS011;13676;50.168;8.568;2022-08-03T02:47:17;3.38;;;1.00;;
25846;SDS011;13676;50.168;8.568;2022-08-03T02:49:45;1.17;;;1.08;;
25846;SDS011;13676;50.168;8.568;2022-08-03T02:52:12;1.05;;;0.80;;
25846;SDS011;13676;50.168;8.568;2022-08-03T02:54:38;1.20;;;1.00;;
25846;SDS011;13676;50.168;8.568;2022-08-03T02:57:05;1.10;;;0.90;;
25846;SDS011;13676;50.168;8.568;2022-08-03T02:59:31;1.13;;;1.02;;
25846;SDS011;13676;50.168;8.568;2022-08-03T03:01:57;1.40;;;1.30;;
25846;SDS011;13676;50.168;8.568;2022-08-03T03:04:24;1.30;;;1.13;;
25846;SDS011;13676;50.168;8.568;2022-08-03T03:06:50;1.80;;;1.17;;
25846;SDS011;13676;50.168;8.568;2022-08-03T03:09:16;1.10;;;0.95;;
25846;SDS011;13676;50.168;8.568;2022-08-03T03:11:41;2.95;;;1.50;;
25846;SDS011;13676;50.168;8.568;2022-08-03T03:14:08;2.35;;;1.10;;
25846;SDS011;13676;50.168;8.568;2022-08-03T03:16:35;1.38;;;1.23;;
25846;SDS011;13676;50.168;8.568;2022-08-03T03:19:01;3.85;;;1.02;;
25846;SDS011;13676;50.168;8.568;2022-08-03T03:21:27;1.80;;;1.15;;
25846;SDS011;13676;50.168;8.568;2022-08-03T03:23:53;1.00;;;0.90;;
25846;SDS011;13676;50.168;8.568;2022-08-03T03:26:19;1.42;;;1.20;;
25846;SDS011;13676;50.168;8.568;2022-08-03T03:28:44;2.45;;;1.17;;
25846;SDS011;13676;50.168;8.568;2022-08-03T03:31:10;1.65;;;1.40;;
25846;SDS011;13676;50.168;8.568;2022-08-03T03:33:35;2.03;;;1.45;;
25846;SDS011;13676;50.168;8.568;2022-08-03T03:36:02;2.88;;;1.40;;
25846;SDS011;13676;50.168;8.568;2022-08-03T03:38:28;3.40;;;1.33;;
25846;SDS011;13676;50.168;8.568;2022-08-03T03:40:54;1.73;;;1.30;;
25846;SDS011;13676;50.168;8.568;2022-08-03T03:43:19;1.05;;;0.95;;
25846;SDS011;13676;50.168;8.568;2022-08-03T03:48:12;1.90;;;1.10;;
25846;SDS011;13676;50.168;8.568;2022-08-03T03:50:37;1.80;;;1.40;;
25846;SDS011;13676;50.168;8.568;2022-08-03T03:53:07;1.70;;;1.20;;
25846;SDS011;13676;50.168;8.568;2022-08-03T03:55:34;1.30;;;1.20;;
25846;SDS011;13676;50.168;8.568;2022-08-03T03:58:00;1.40;;;1.10;;
25846;SDS011;13676;50.168;8.568;2022-08-03T04:00:25;1.45;;;1.17;;
25846;SDS011;13676;50.168;8.568;2022-08-03T04:02:50;1.73;;;1.23;;
25846;SDS011;13676;50.168;8.568;2022-08-03T04:05:16;3.70;;;1.40;;
25846;SDS011;13676;50.168;8.568;2022-08-03T04:08:04;2.67;;;1.83;;
25846;SDS011;13676;50.168;8.568;2022-08-03T04:16:09;1.80;;;1.02;;
25846;SDS011;13676;50.168;8.568;2022-08-03T04:18:37;3.17;;;1.38;;
25846;SDS011;13676;50.168;8.568;2022-08-03T04:21:04;2.30;;;1.48;;
25846;SDS011;13676;50.168;8.568;2022-08-03T04:23:33;1.25;;;1.15;;
25846;SDS011;13676;50.168;8.568;2022-08-03T04:26:01;1.30;;;1.00;;
25846;SDS011;13676;50.168;8.568;2022-08-03T04:30:52;1.25;;;1.10;;
25846;SDS011;13676;50.168;8.568;2022-08-03T04:33:18;2.30;;;1.17;;
25846;SDS011;13676;50.168;8.568;2022-08-03T04:35:45;1.65;;;1.20;;
25846;SDS011;13676;50.168;8.568;2022-08-03T04:38:11;1.67;;;1.23;;
25846;SDS011;13676;50.168;8.568;2022-08-03T04:43:04;1.70;;;1.40;;
25846;SDS011;13676;50.168;8.568;2022-08-03T04:45:29;2.50;;;1.10;;
25846;SDS011;13676;50.168;8.568;2022-08-03T04:47:55;1.73;;;1.45;;
25846;SDS011;13676;50.168;8.568;2022-08-03T04:50:21;2.15;;;1.48;;
25846;SDS011;13676;50.168;8.568;2022-08-03T04:52:47;3.60;;;1.85;;
25846;SDS011;13676;50.168;8.568;2022-08-03T04:55:23;4.53;;;1.98;;
25846;SDS011;13676;50.168;8.568;2022-08-03T04:57:52;2.90;;;1.95;;
25846;SDS011;13676;50.168;8.568;2022-08-03T05:00:17;4.95;;;1.75;;
25846;SDS011;13676;50.168;8.568;2022-08-03T05:02:43;3.20;;;1.50;;
25846;SDS011;13676;50.168;8.568;2022-08-03T05:05:08;1.90;;;1.60;;
25846;SDS011;13676;50.168;8.568;2022-08-03T05:07:34;1.67;;;1.50;;
25846;SDS011;13676;50.168;8.568;2022-08-03T05:09:59;3.83;;;2.28;;
25846;SDS011;13676;50.168;8.568;2022-08-03T05:12:24;2.97;;;1.70;;
25846;SDS011;13676;50.168;8.568;2022-08-03T05:14:50;2.53;;;1.95;;
25846;SDS011;13676;50.168;8.568;2022-08-03T05:17:15;1.50;;;1.38;;
25846;SDS011;13676;50.168;8.568;2022-08-03T05:19:41;2.70;;;1.70;;
25846;SDS011;13676;50.168;8.568;2022-08-03T05:22:06;2.08;;;1.63;;
25846;SDS011;13676;50.168;8.568;2022-08-03T05:24:31;2.65;;;1.75;;
25846;SDS011;13676;50.168;8.568;2022-08-03T05:26:57;3.90;;;2.55;;
25846;SDS011;13676;50.168;8.568;2022-08-03T05:29:22;5.72;;;2.10;;
25846;SDS011;13676;50.168;8.568;2022-08-03T05:31:47;2.67;;;1.92;;
25846;SDS011;13676;50.168;8.568;2022-08-03T05:34:13;3.55;;;2.03;;
25846;SDS011;13676;50.168;8.568;2022-08-03T05:36:38;3.53;;;2.45;;
25846;SDS011;13676;50.168;8.568;2022-08-03T05:39:03;4.28;;;2.75;;
25846;SDS011;13676;50.168;8.568;2022-08-03T05:41:29;4.15;;;2.10;;
25846;SDS011;13676;50.168;8.568;2022-08-03T05:43:55;3.08;;;2.22;;
25846;SDS011;13676;50.168;8.568;2022-08-03T05:46:21;5.65;;;2.40;;
25846;SDS011;13676;50.168;8.568;2022-08-03T05:48:46;4.00;;;2.33;;
25846;SDS011;13676;50.168;8.568;2022-08-03T05:51:12;2.72;;;1.95;;
25846;SDS011;13676;50.168;8.568;2022-08-03T05:53:37;3.03;;;2.22;;
25846;SDS011;13676;50.168;8.568;2022-08-03T05:56:04;3.97;;;1.90;;
25846;SDS011;13676;50.168;8.568;2022-08-03T05:58:29;2.30;;;1.60;;
25846;SDS011;13676;50.168;8.568;2022-08-03T06:00:54;2.92;;;1.60;;
25846;SDS011;13676;50.168;8.568;2022-08-03T06:03:20;1.98;;;1.52;;
25846;SDS011;13676;50.168;8.568;2022-08-03T06:05:46;3.42;;;1.70;;
25846;SDS011;13676;50.168;8.568;2022-08-03T06:08:11;3.08;;;1.60;;
25846;SDS011;13676;50.168;8.568;2022-08-03T06:10:36;2.80;;;1.67;;
25846;SDS011;13676;50.168;8.568;2022-08-03T06:13:02;3.28;;;1.60;;
25846;SDS011;13676;50.168;8.568;2022-08-03T06:15:27;2.50;;;1.75;;
25846;SDS011;13676;50.168;8.568;2022-08-03T06:17:53;2.40;;;1.50;;
25846;SDS011;13676;50.168;8.568;2022-08-03T06:20:19;2.50;;;1.60;;
25846;SDS011;13676;50.168;8.568;2022-08-03T06:22:48;3.90;;;2.00;;
25846;SDS011;13676;50.168;8.568;2022-08-03T06:25:13;2.50;;;1.60;;
25846;SDS011;13676;50.168;8.568;2022-08-03T06:27:40;3.70;;;2.00;;
25846;SDS011;13676;50.168;8.568;2022-08-03T06:30:06;1.52;;;1.40;;
25846;SDS011;13676;50.168;8.568;2022-08-03T06:32:34;4.03;;;2.13;;
25846;SDS011;13676;50.168;8.568;2022-08-03T06:35:03;3.90;;;1.85;;
25846;SDS011;13676;50.168;8.568;2022-08-03T06:37:30;3.95;;;1.50;;
25846;SDS011;13676;50.168;8.568;2022-08-03T06:39:55;2.80;;;1.38;;
25846;SDS011;13676;50.168;8.568;2022-08-03T06:42:21;3.47;;;2.00;;
25846;SDS011;13676;50.168;8.568;2022-08-03T06:44:46;2.05;;;1.40;;
25846;SDS011;13676;50.168;8.568;2022-08-03T06:47:11;1.88;;;1.10;;
25846;SDS011;13676;50.168;8.568;2022-08-03T06:49:37;3.03;;;1.30;;
25846;SDS011;13676;50.168;8.568;2022-08-03T06:52:02;2.22;;;1.52;;
25846;SDS011;13676;50.168;8.568;2022-08-03T06:54:28;3.15;;;1.30;;
25846;SDS011;13676;50.168;8.568;2022-08-03T06:56:54;5.53;;;1.85;;
25846;SDS011;13676;50.168;8.568;2022-08-03T06:59:19;3.67;;;1.60;;
25846;SDS011;13676;50.168;8.568;2022-08-03T07:01:44;2.28;;;1.30;;
25846;SDS011;13676;50.168;8.568;2022-08-03T07:04:10;3.50;;;1.50;;
25846;SDS011;13676;50.168;8.568;2022-08-03T07:06:36;3.58;;;1.30;;
25846;SDS011;13676;50.168;8.568;2022-08-03T07:09:02;1.63;;;1.08;;
25846;SDS011;13676;50.168;8.568;2022-08-03T07:11:27;2.97;;;1.33;;
25846;SDS011;13676;50.168;8.568;2022-08-03T07:13:53;2.47;;;1.20;;
25846;SDS011;13676;50.168;8.568;2022-08-03T07:16:18;3.95;;;1.58;;
25846;SDS011;13676;50.168;8.568;2022-08-03T07:18:44;1.92;;;1.30;;
25846;SDS011;13676;50.168;8.568;2022-08-03T07:21:09;4.78;;;1.60;;
25846;SDS011;13676;50.168;8.568;2022-08-03T07:23:36;4.65;;;1.50;;
25846;SDS011;13676;50.168;8.568;2022-08-03T07:26:02;2.60;;;1.42;;
25846;SDS011;13676;50.168;8.568;2022-08-03T07:28:27;2.22;;;1.52;;
25846;SDS011;13676;50.168;8.568;2022-08-03T07:30:53;6.07;;;1.63;;
25846;SDS011;13676;50.168;8.568;2022-08-03T07:33:18;1.52;;;1.05;;
25846;SDS011;13676;50.168;8.568;2022-08-03T07:35:43;3.00;;;1.70;;
25846;SDS011;13676;50.168;8.568;2022-08-03T07:38:09;1.67;;;1.20;;
25846;SDS011;13676;50.168;8.568;2022-08-03T07:40:34;1.30;;;0.90;;
25846;SDS011;13676;50.168;8.568;2022-08-03T07:42:59;2.95;;;1.52;;
25846;SDS011;13676;50.168;8.568;2022-08-03T07:47:52;2.60;;;1.20;;
25846;SDS011;13676;50.168;8.568;2022-08-03T07:50:17;4.10;;;1.50;;
25846;SDS011;13676;50.168;8.568;2022-08-03T07:52:43;2.72;;;1.50;;
25846;SDS011;13676;50.168;8.568;2022-08-03T07:55:19;5.65;;;1.70;;
25846;SDS011;13676;50.168;8.568;2022-08-03T07:57:58;2.63;;;1.45;;
25846;SDS011;13676;50.168;8.568;2022-08-03T08:02:49;1.85;;;1.50;;
25846;SDS011;13676;50.168;8.568;2022-08-03T08:05:15;4.03;;;1.65;;
25846;SDS011;13676;50.168;8.568;2022-08-03T08:07:40;4.32;;;1.50;;
25846;SDS011;13676;50.168;8.568;2022-08-03T08:10:06;2.05;;;1.67;;
25846;SDS011;13676;50.168;8.568;2022-08-03T08:12:33;4.25;;;1.40;;
25846;SDS011;13676;50.168;8.568;2022-08-03T08:14:59;4.50;;;1.50;;
25846;SDS011;13676;50.168;8.568;2022-08-03T08:17:25;10.32;;;1.77;;
25846;SDS011;13676;50.168;8.568;2022-08-03T08:19:50;2.35;;;1.30;;
25846;SDS011;13676;50.168;8.568;2022-08-03T08:22:16;2.35;;;1.42;;
25846;SDS011;13676;50.168;8.568;2022-08-03T08:24:41;2.42;;;1.42;;
25846;SDS011;13676;50.168;8.568;2022-08-03T08:27:08;4.20;;;1.20;;
25846;SDS011;13676;50.168;8.568;2022-08-03T08:29:36;1.88;;;1.33;;
25846;SDS011;13676;50.168;8.568;2022-08-03T08:32:02;2.72;;;1.25;;
25846;SDS011;13676;50.168;8.568;2022-08-03T08:34:28;2.78;;;1.30;;
25846;SDS011;13676;50.168;8.568;2022-08-03T08:36:53;2.60;;;1.50;;
25846;SDS011;13676;50.168;8.568;2022-08-03T08:39:18;1.85;;;1.05;;
25846;SDS011;13676;50.168;8.568;2022-08-03T08:41:44;3.50;;;1.20;;
25846;SDS011;13676;50.168;8.568;2022-08-03T08:44:09;2.38;;;1.17;;
25846;SDS011;13676;50.168;8.568;2022-08-03T08:46:35;4.03;;;1.00;;
25846;SDS011;13676;50.168;8.568;2022-08-03T08:51:30;2.47;;;1.10;;
25846;SDS011;13676;50.168;8.568;2022-08-03T08:54:00;1.52;;;1.17;;
25846;SDS011;13676;50.168;8.568;2022-08-03T08:56:27;2.78;;;1.20;;
25846;SDS011;13676;50.168;8.568;2022-08-03T08:58:56;2.33;;;1.00;;
25846;SDS011;13676;50.168;8.568;2022-08-03T09:01:23;1.88;;;1.00;;
25846;SDS011;13676;50.168;8.568;2022-08-03T09:03:48;2.75;;;1.02;;
25846;SDS011;13676;50.168;8.568;2022-08-03T09:06:14;2.15;;;1.00;;
25846;SDS011;13676;50.168;8.568;2022-08-03T09:08:40;1.05;;;0.95;;
25846;SDS011;13676;50.168;8.568;2022-08-03T09:11:05;1.52;;;0.70;;
25846;SDS011;13676;50.168;8.568;2022-08-03T09:13:32;1.40;;;0.77;;
25846;SDS011;13676;50.168;8.568;2022-08-03T09:16:19;3.88;;;0.68;;
25846;SDS011;13676;50.168;8.568;2022-08-03T09:21:14;1.65;;;0.80;;
25846;SDS011;13676;50.168;8.568;2022-08-03T09:23:47;1.30;;;1.08;;
25846;SDS011;13676;50.168;8.568;2022-08-03T09:26:24;1.52;;;0.80;;
25846;SDS011;13676;50.168;8.568;2022-08-03T09:28:58;3.95;;;1.00;;
25846;SDS011;13676;50.168;8.568;2022-08-03T09:31:37;2.63;;;1.10;;
25846;SDS011;13676;50.168;8.568;2022-08-03T09:34:05;2.17;;;0.88;;
25846;SDS011;13676;50.168;8.568;2022-08-03T09:39:11;1.37;;;0.77;;
25846;SDS011;13676;50.168;8.568;2022-08-03T09:41:38;2.65;;;0.90;;
25846;SDS011;13676;50.168;8.568;2022-08-03T09:44:05;1.33;;;0.90;;
25846;SDS011;13676;50.168;8.568;2022-08-03T09:46:46;2.55;;;1.17;;
25846;SDS011;13676;50.168;8.568;2022-08-03T09:49:14;1.52;;;0.80;;
25846;SDS011;13676;50.168;8.568;2022-08-03T09:51:40;1.65;;;1.05;;
25846;SDS011;13676;50.168;8.568;2022-08-03T09:54:05;1.27;;;0.80;;
25846;SDS011;13676;50.168;8.568;2022-08-03T09:56:44;1.30;;;0.70;;
25846;SDS011;13676;50.168;8.568;2022-08-03T09:59:11;2.22;;;0.90;;
25846;SDS011;13676;50.168;8.568;2022-08-03T10:01:37;1.63;;;0.80;;
25846;SDS011;13676;50.168;8.568;2022-08-03T10:04:10;6.43;;;1.02;;
25846;SDS011;13676;50.168;8.568;2022-08-03T10:06:37;2.28;;;0.80;;
25846;SDS011;13676;50.168;8.568;2022-08-03T10:09:06;1.43;;;0.70;;
25846;SDS011;13676;50.168;8.568;2022-08-03T10:11:33;1.55;;;0.65;;
25846;SDS011;13676;50.168;8.568;2022-08-03T10:14:00;1.35;;;0.80;;
25846;SDS011;13676;50.168;8.568;2022-08-03T10:16:29;0.77;;;0.75;;
25846;SDS011;13676;50.168;8.568;2022-08-03T10:18:57;1.23;;;0.90;;
25846;SDS011;13676;50.168;8.568;2022-08-03T10:21:23;2.87;;;0.80;;
25846;SDS011;13676;50.168;8.568;2022-08-03T10:23:48;2.07;;;1.00;;
25846;SDS011;13676;50.168;8.568;2022-08-03T10:26:15;2.22;;;1.00;;
25846;SDS011;13676;50.168;8.568;2022-08-03T10:28:46;2.17;;;0.80;;
25846;SDS011;13676;50.168;8.568;2022-08-03T10:31:13;1.38;;;0.80;;
25846;SDS011;13676;50.168;8.568;2022-08-03T10:36:10;1.42;;;0.80;;
25846;SDS011;13676;50.168;8.568;2022-08-03T10:38:37;0.87;;;0.77;;
25846;SDS011;13676;50.168;8.568;2022-08-03T10:41:05;1.40;;;0.90;;
25846;SDS011;13676;50.168;8.568;2022-08-03T10:43:32;2.33;;;1.00;;
25846;SDS011;13676;50.168;8.568;2022-08-03T10:46:02;2.67;;;0.80;;
25846;SDS011;13676;50.168;8.568;2022-08-03T10:48:30;2.70;;;1.13;;
25846;SDS011;13676;50.168;8.568;2022-08-03T10:50:55;1.30;;;0.80;;
25846;SDS011;13676;50.168;8.568;2022-08-03T10:53:37;1.63;;;0.90;;
25846;SDS011;13676;50.168;8.568;2022-08-03T10:56:04;2.03;;;0.98;;
25846;SDS011;13676;50.168;8.568;2022-08-03T10:58:49;0.70;;;0.70;;
25846;SDS011;13676;50.168;8.568;2022-08-03T11:01:19;5.68;;;1.25;;
25846;SDS011;13676;50.168;8.568;2022-08-03T11:04:22;6.07;;;1.05;;
25846;SDS011;13676;50.168;8.568;2022-08-03T11:09:40;1.93;;;1.00;;
25846;SDS011;13676;50.168;8.568;2022-08-03T11:15:05;2.83;;;1.02;;
25846;SDS011;13676;50.168;8.568;2022-08-03T11:17:33;0.70;;;0.70;;
25846;SDS011;13676;50.168;8.568;2022-08-03T11:19:58;1.20;;;0.93;;
25846;SDS011;13676;50.168;8.568;2022-08-03T11:22:24;2.43;;;1.20;;
25846;SDS011;13676;50.168;8.568;2022-08-03T11:37:33;1.00;;;0.82;;
25846;SDS011;13676;50.168;8.568;2022-08-03T11:39:58;3.23;;;0.77;;
25846;SDS011;13676;50.168;8.568;2022-08-03T11:44:54;1.20;;;1.10;;
25846;SDS011;13676;50.168;8.568;2022-08-03T11:47:21;1.20;;;0.88;;
25846;SDS011;13676;50.168;8.568;2022-08-03T11:49:48;1.40;;;0.95;;
25846;SDS011;13676;50.168;8.568;2022-08-03T11:52:17;3.28;;;1.55;;
25846;SDS011;13676;50.168;8.568;2022-08-03T11:54:43;2.50;;;1.15;;
25846;SDS011;13676;50.168;8.568;2022-08-03T11:57:09;2.37;;;0.90;;
25846;SDS011;13676;50.168;8.568;2022-08-03T11:59:35;1.70;;;0.90;;
25846;SDS011;13676;50.168;8.568;2022-08-03T12:04:53;1.10;;;0.88;;
25846;SDS011;13676;50.168;8.568;2022-08-03T12:07:25;0.95;;;0.73;;
25846;SDS011;13676;50.168;8.568;2022-08-03T12:10:06;2.08;;;1.00;;
25846;SDS011;13676;50.168;8.568;2022-08-03T12:12:38;4.50;;;1.15;;
25846;SDS011;13676;50.168;8.568;2022-08-03T12:15:04;1.48;;;0.90;;
25846;SDS011;13676;50.168;8.568;2022-08-03T12:17:38;2.00;;;0.90;;
25846;SDS011;13676;50.168;8.568;2022-08-03T12:20:05;2.45;;;0.70;;
25846;SDS011;13676;50.168;8.568;2022-08-03T12:22:36;2.38;;;1.30;;
25846;SDS011;13676;50.168;8.568;2022-08-03T12:25:03;1.33;;;1.00;;
25846;SDS011;13676;50.168;8.568;2022-08-03T12:29:54;2.17;;;1.00;;
25846;SDS011;13676;50.168;8.568;2022-08-03T12:32:21;0.95;;;0.82;;
25846;SDS011;13676;50.168;8.568;2022-08-03T12:34:47;2.20;;;1.00;;
25846;SDS011;13676;50.168;8.568;2022-08-03T12:37:13;1.20;;;0.80;;
25846;SDS011;13676;50.168;8.568;2022-08-03T12:39:42;1.90;;;0.90;;
25846;SDS011;13676;50.168;8.568;2022-08-03T12:42:14;2.63;;;1.00;;
25846;SDS011;13676;50.168;8.568;2022-08-03T12:44:39;0.80;;;0.50;;
25846;SDS011;13676;50.168;8.568;2022-08-03T12:47:05;3.70;;;0.67;;
25846;SDS011;13676;50.168;8.568;2022-08-03T12:49:46;3.00;;;1.10;;
25846;SDS011;13676;50.168;8.568;2022-08-03T12:52:16;3.13;;;1.00;;
25846;SDS011;13676;50.168;8.568;2022-08-03T12:54:53;1.92;;;0.90;;
25846;SDS011;13676;50.168;8.568;2022-08-03T12:57:24;1.45;;;0.90;;
25846;SDS011;13676;50.168;8.568;2022-08-03T12:59:50;1.67;;;1.13;;
25846;SDS011;13676;50.168;8.568;2022-08-03T13:04:46;2.83;;;1.10;;
25846;SDS011;13676;50.168;8.568;2022-08-03T13:07:12;2.35;;;0.70;;
25846;SDS011;13676;50.168;8.568;2022-08-03T13:09:43;1.85;;;1.00;;
25846;SDS011;13676;50.168;8.568;2022-08-03T13:14:39;0.77;;;0.60;;
25846;SDS011;13676;50.168;8.568;2022-08-03T13:19:32;1.67;;;0.90;;
25846;SDS011;13676;50.168;8.568;2022-08-03T13:21:58;1.83;;;0.80;;
25846;SDS011;13676;50.168;8.568;2022-08-03T13:24:23;5.10;;;1.10;;
25846;SDS011;13676;50.168;8.568;2022-08-03T13:26:49;1.17;;;0.80;;
25846;SDS011;13676;50.168;8.568;2022-08-03T13:29:15;1.27;;;0.80;;
25846;SDS011;13676;50.168;8.568;2022-08-03T13:31:41;1.23;;;0.77;;
25846;SDS011;13676;50.168;8.568;2022-08-03T13:34:06;1.20;;;0.80;;
25846;SDS011;13676;50.168;8.568;2022-08-03T13:36:32;2.20;;;0.90;;
25846;SDS011;13676;50.168;8.568;2022-08-03T13:38:57;1.00;;;0.70;;
25846;SDS011;13676;50.168;8.568;2022-08-03T13:41:23;1.00;;;0.77;;
25846;SDS011;13676;50.168;8.568;2022-08-03T13:43:48;0.97;;;0.73;;
25846;SDS011;13676;50.168;8.568;2022-08-03T13:46:14;0.70;;;0.70;;
25846;SDS011;13676;50.168;8.568;2022-08-03T13:48:39;1.10;;;0.73;;
25846;SDS011;13676;50.168;8.568;2022-08-03T13:51:05;3.73;;;0.60;;
25846;SDS011;13676;50.168;8.568;2022-08-03T13:53:31;1.07;;;0.73;;
25846;SDS011;13676;50.168;8.568;2022-08-03T13:55:56;0.57;;;0.57;;
25846;SDS011;13676;50.168;8.568;2022-08-03T13:58:22;2.50;;;0.73;;
25846;SDS011;13676;50.168;8.568;2022-08-03T14:00:47;1.00;;;0.83;;
25846;SDS011;13676;50.168;8.568;2022-08-03T14:03:13;0.70;;;0.70;;
25846;SDS011;13676;50.168;8.568;2022-08-03T14:05:39;1.70;;;0.80;;
25846;SDS011;13676;50.168;8.568;2022-08-03T14:08:06;1.88;;;0.70;;
25846;SDS011;13676;50.168;8.568;2022-08-03T14:10:32;0.73;;;0.73;;
25846;SDS011;13676;50.168;8.568;2022-08-03T14:12:59;2.95;;;0.80;;
25846;SDS011;13676;50.168;8.568;2022-08-03T14:15:25;1.23;;;0.80;;
25846;SDS011;13676;50.168;8.568;2022-08-03T14:17:50;0.60;;;0.60;;
25846;SDS011;13676;50.168;8.568;2022-08-03T14:20:16;0.93;;;0.80;;
25846;SDS011;13676;50.168;8.568;2022-08-03T14:22:41;0.90;;;0.73;;
25846;SDS011;13676;50.168;8.568;2022-08-03T14:25:07;1.87;;;0.80;;
25846;SDS011;13676;50.168;8.568;2022-08-03T14:27:32;0.60;;;0.60;;
25846;SDS011;13676;50.168;8.568;2022-08-03T14:29:57;2.20;;;0.60;;
25846;SDS011;13676;50.168;8.568;2022-08-03T14:32:25;0.90;;;0.60;;
25846;SDS011;13676;50.168;8.568;2022-08-03T14:34:51;6.13;;;0.90;;
25846;SDS011;13676;50.168;8.568;2022-08-03T14:37:17;1.45;;;0.68;;
25846;SDS011;13676;50.168;8.568;2022-08-03T14:39:42;0.50;;;0.40;;
25846;SDS011;13676;50.168;8.568;2022-08-03T14:42:08;0.50;;;0.50;;
25846;SDS011;13676;50.168;8.568;2022-08-03T14:44:33;0.50;;;0.40;;
25846;SDS011;13676;50.168;8.568;2022-08-03T14:46:59;0.50;;;0.40;;
25846;SDS011;13676;50.168;8.568;2022-08-03T14:49:24;0.87;;;0.57;;
25846;SDS011;13676;50.168;8.568;2022-08-03T14:51:50;0.73;;;0.70;;
25846;SDS011;13676;50.168;8.568;2022-08-03T14:54:15;2.33;;;0.60;;
25846;SDS011;13676;50.168;8.568;2022-08-03T14:56:41;1.13;;;0.60;;
25846;SDS011;13676;50.168;8.568;2022-08-03T14:59:06;0.60;;;0.53;;
25846;SDS011;13676;50.168;8.568;2022-08-03T15:01:31;0.73;;;0.37;;
25846;SDS011;13676;50.168;8.568;2022-08-03T15:03:57;0.73;;;0.57;;
25846;SDS011;13676;50.168;8.568;2022-08-03T15:06:22;1.80;;;0.90;;
25846;SDS011;13676;50.168;8.568;2022-08-03T15:08:48;1.37;;;0.77;;
25846;SDS011;13676;50.168;8.568;2022-08-03T15:11:13;1.03;;;0.80;;
25846;SDS011;13676;50.168;8.568;2022-08-03T15:13:39;1.33;;;0.60;;
25846;SDS011;13676;50.168;8.568;2022-08-03T15:16:04;1.40;;;0.60;;
25846;SDS011;13676;50.168;8.568;2022-08-03T15:18:30;0.60;;;0.50;;
25846;SDS011;13676;50.168;8.568;2022-08-03T15:20:55;0.70;;;0.50;;
25846;SDS011;13676;50.168;8.568;2022-08-03T15:23:20;4.23;;;0.60;;
25846;SDS011;13676;50.168;8.568;2022-08-03T15:25:46;0.60;;;0.50;;
25846;SDS011;13676;50.168;8.568;2022-08-03T15:28:12;0.73;;;0.63;;
25846;SDS011;13676;50.168;8.568;2022-08-03T15:30:37;0.83;;;0.43;;
25846;SDS011;13676;50.168;8.568;2022-08-03T15:33:03;0.60;;;0.60;;
25846;SDS011;13676;50.168;8.568;2022-08-03T15:35:29;1.02;;;0.57;;
25846;SDS011;13676;50.168;8.568;2022-08-03T15:37:54;2.23;;;0.83;;
25846;SDS011;13676;50.168;8.568;2022-08-03T15:40:20;1.47;;;0.77;;
25846;SDS011;13676;50.168;8.568;2022-08-03T15:42:45;0.80;;;0.57;;
25846;SDS011;13676;50.168;8.568;2022-08-03T15:45:12;1.83;;;0.60;;
25846;SDS011;13676;50.168;8.568;2022-08-03T15:47:37;0.50;;;0.50;;
25846;SDS011;13676;50.168;8.568;2022-08-03T15:50:03;0.43;;;0.43;;
25846;SDS011;13676;50.168;8.568;2022-08-03T15:52:28;3.10;;;0.70;;
25846;SDS011;13676;50.168;8.568;2022-08-03T15:54:54;0.80;;;0.60;;
25846;SDS011;13676;50.168;8.568;2022-08-03T15:57:19;1.07;;;0.80;;
25846;SDS011;13676;50.168;8.568;2022-08-03T15:59:45;1.17;;;0.60;;